createdAt,value
2022-11-29T00:00:02.410Z,870
2022-11-29T00:15:01.856Z,865
2022-11-29T00:30:06.095Z,859
2022-11-29T00:45:04.228Z,853
2022-11-29T01:00:05.127Z,851
2022-11-29T01:15:04.845Z,845
2022-11-29T01:30:03.163Z,840
2022-11-29T01:45:06.202Z,834
2022-11-29T02:00:06.354Z,828
2022-11-29T02:15:03.911Z,814
2022-11-29T02:30:02.822Z,806
2022-11-29T02:45:05.856Z,796
2022-11-29T03:00:05.999Z,792
2022-11-29T03:15:02.122Z,786
2022-11-29T03:30:05.327Z,784
2022-11-29T03:45:06.029Z,777
2022-11-29T04:00:05.210Z,769
2022-11-29T04:15:05.942Z,763
2022-11-29T04:30:04.112Z,758
2022-11-29T05:00:05.104Z,758
2022-11-29T05:15:02.382Z,758
2022-11-29T05:30:04.961Z,766
2022-11-29T05:45:04.118Z,826
2022-11-29T06:00:04.083Z,843
2022-11-29T06:15:04.943Z,865
2022-11-29T06:30:03.291Z,890
2022-11-29T06:45:05.331Z,873
2022-11-29T07:00:03.072Z,866
2022-11-29T07:15:03.138Z,853
2022-11-29T07:30:02.190Z,833
2022-11-29T07:45:05.835Z,798
2022-11-29T08:00:05.192Z,767
2022-11-29T08:15:02.377Z,733
2022-11-29T08:30:03.991Z,704
2022-11-29T08:45:01.902Z,676
2022-11-29T09:00:04.230Z,658
2022-11-29T09:15:06.185Z,645
2022-11-29T09:30:02.271Z,644
2022-11-29T09:45:04.958Z,649
2022-11-29T10:00:04.299Z,663
2022-11-29T10:15:05.215Z,679
2022-11-29T10:30:04.974Z,696
2022-11-29T10:45:03.352Z,700
2022-11-29T11:00:04.413Z,699
2022-11-29T11:30:01.893Z,699
2022-11-29T11:45:06.101Z,692
2022-11-29T12:00:04.351Z,676
2022-11-29T12:15:02.262Z,680
2022-11-29T12:30:05.893Z,697
2022-11-29T12:45:05.241Z,705
2022-11-29T13:00:02.818Z,719
2022-11-29T13:15:01.847Z,744
2022-11-29T13:30:02.099Z,764
2022-11-29T13:45:03.294Z,781
2022-11-29T14:00:04.190Z,807
2022-11-29T14:15:02.111Z,838
2022-11-29T14:30:05.285Z,876
2022-11-29T14:45:05.014Z,970
2022-11-29T15:00:06.215Z,1004
2022-11-29T15:15:03.363Z,1039
2022-11-29T15:30:04.374Z,1060
2022-11-29T15:45:02.239Z,1053
2022-11-29T16:00:04.814Z,1047
2022-11-29T16:30:05.272Z,1047
2022-11-29T16:45:02.011Z,1040
2022-11-29T17:00:06.254Z,1037
2022-11-29T17:15:04.841Z,1043
2022-11-29T17:30:06.067Z,1046
2022-11-29T17:45:02.243Z,1047
2022-11-29T18:00:04.850Z,1053
2022-11-29T18:15:02.173Z,1059
2022-11-29T18:30:06.341Z,1076
2022-11-29T18:45:01.968Z,1119
2022-11-29T19:00:03.164Z,1138
2022-11-29T19:15:02.225Z,1153
2022-11-29T19:30:04.870Z,1154
2022-11-29T19:45:05.275Z,1146
2022-11-29T20:00:03.136Z,1128
2022-11-29T20:15:06.152Z,1106
2022-11-29T20:30:06.322Z,1085
2022-11-29T20:45:01.890Z,1067
2022-11-29T21:00:05.101Z,1045
2022-11-29T21:15:05.834Z,1030
2022-11-29T21:30:03.016Z,1009
2022-11-29T21:45:06.065Z,990
2022-11-29T22:15:03.113Z,973
2022-11-29T22:30:02.217Z,964
2022-11-29T22:45:04.401Z,960
2022-11-29T23:00:06.228Z,949
2022-11-29T23:15:02.323Z,928
2022-11-29T23:30:01.923Z,917
2022-11-29T23:45:03.086Z,903
